Time;durP1;ratioP1;P1;durP2;ratioP2;P2;SDS_P1;SDS_P2;PMS_P1;PMS_P2;Temp;Humidity;BMP_temperature;BMP_pressure;BME280_temperature;BME280_humidity;BME280_pressure;Samples;Min_cycle;Max_cycle;Signal;HPM_P1;HPM_P2
2022/07/22 00:00:15;;;;;;;16.25;10.38;;;;;;;15.38;100.00;101302.63;687759;28;1826;-85
2022/07/22 00:00:36;;;;;;;15.30;10.48;;;;;;;15.35;100.00;101317.59;690067;28;1358;-84
2022/07/22 00:00:57;;;;;;;15.60;10.87;;;;;;;15.30;100.00;101312.41;687152;28;4376;-84
2022/07/22 00:01:18;;;;;;;14.25;10.27;;;;;;;15.32;100.00;101313.25;686368;28;4856;-84
2022/07/22 00:01:38;;;;;;;17.77;10.63;;;;;;;15.29;100.00;101329.94;686787;28;1621;-84
2022/07/22 00:02:01;;;;;;;18.98;11.10;;;;;;;15.26;100.00;101316.84;684968;28;1454;-84
2022/07/22 00:02:22;;;;;;;17.45;10.52;;;;;;;15.25;100.00;101299.28;684139;28;1292;-84
2022/07/22 00:02:43;;;;;;;16.70;10.15;;;;;;;15.25;100.00;101301.06;686109;28;888;-83
2022/07/22 00:03:04;;;;;;;18.63;10.17;;;;;;;15.24;100.00;101302.81;687414;28;1553;-84
2022/07/22 00:03:24;;;;;;;15.77;9.90;;;;;;;15.20;100.00;101295.84;687640;28;1361;-84
2022/07/22 00:03:45;;;;;;;16.23;10.23;;;;;;;15.24;100.00;101310.69;682523;28;1772;-84
2022/07/22 00:04:06;;;;;;;15.73;10.10;;;;;;;15.31;100.00;101301.84;681762;28;4325;-84
2022/07/22 00:04:27;;;;;;;16.73;10.30;;;;;;;15.33;100.00;101302.69;680160;29;1438;-84
2022/07/22 00:04:47;;;;;;;14.80;9.70;;;;;;;15.28;100.00;101293.97;682867;29;1368;-84
2022/07/22 00:05:10;;;;;;;16.47;10.10;;;;;;;15.40;100.00;101300.84;684194;28;1166;-83
2022/07/22 00:05:31;;;;;;;17.27;10.07;;;;;;;15.37;100.00;101316.69;685936;28;1415;-84
2022/07/22 00:05:54;;;;;;;15.57;9.70;;;;;;;15.41;100.00;101321.03;682519;28;1445;-84
2022/07/22 00:06:17;;;;;;;16.20;10.18;;;;;;;15.40;100.00;101302.59;680600;29;1373;-84
2022/07/22 00:06:40;;;;;;;15.18;9.80;;;;;;;15.35;100.00;101313.19;683085;28;966;-84
2022/07/22 00:07:04;;;;;;;16.38;9.77;;;;;;;15.34;100.00;101295.66;683464;28;4364;-83
2022/07/22 00:07:25;;;;;;;16.45;10.10;;;;;;;15.30;100.00;101300.09;682860;28;1470;-84
2022/07/22 00:07:45;;;;;;;17.13;10.23;;;;;;;15.30;100.00;101294.81;691180;28;1334;-84
2022/07/22 00:08:08;;;;;;;15.50;10.07;;;;;;;15.34;100.00;101300.94;687716;28;1005;-84
2022/07/22 00:08:32;;;;;;;14.15;9.70;;;;;;;15.29;100.00;101293.06;691062;28;1441;-83
2022/07/22 00:08:53;;;;;;;15.20;9.90;;;;;;;15.32;100.00;101322.00;688680;28;1089;-83
2022/07/22 00:09:13;;;;;;;14.77;9.32;;;;;;;15.35;100.00;101315.81;683332;28;1176;-83
2022/07/22 00:09:34;;;;;;;15.10;9.65;;;;;;;15.33;100.00;101310.59;681604;28;1197;-84
2022/07/22 00:09:55;;;;;;;15.30;9.90;;;;;;;15.32;100.00;101303.56;680825;28;4340;-84
2022/07/22 00:10:15;;;;;;;14.25;9.95;;;;;;;15.28;100.00;101298.38;682979;28;1185;-83
2022/07/22 00:10:36;;;;;;;14.65;9.77;;;;;;;15.27;100.00;101294.88;683682;28;1271;-84
2022/07/22 00:10:56;;;;;;;15.63;9.63;;;;;;;15.25;100.00;101296.66;683624;28;1220;-83
2022/07/22 00:11:19;;;;;;;16.05;9.93;;;;;;;15.37;100.00;101321.06;681044;28;1258;-83
2022/07/22 00:11:40;;;;;;;13.48;9.30;;;;;;;15.41;100.00;101299.94;680842;28;1653;-83
2022/07/22 00:12:04;;;;;;;14.02;9.30;;;;;;;15.36;100.00;101299.13;682135;28;2050;-83
2022/07/22 00:12:25;;;;;;;15.18;9.25;;;;;;;15.37;100.00;101315.78;681374;29;1348;-83
2022/07/22 00:12:45;;;;;;;16.27;9.13;;;;;;;15.35;100.00;101320.22;682454;28;1468;-83
2022/07/22 00:13:14;;;;;;;14.75;9.20;;;;;;;15.32;100.00;101307.97;680024;28;5159;-84
2022/07/22 00:13:35;;;;;;;14.20;9.10;;;;;;;15.27;100.00;101310.69;681569;28;1204;-83
2022/07/22 00:13:55;;;;;;;13.60;8.67;;;;;;;15.28;100.00;101306.28;680814;28;1153;-83
2022/07/22 00:14:16;;;;;;;13.55;8.68;;;;;;;15.30;100.00;101315.03;679746;28;1527;-84
2022/07/22 00:14:36;;;;;;;16.30;9.10;;;;;;;15.27;100.00;101305.41;678199;29;1232;-84
2022/07/22 00:14:57;;;;;;;14.30;9.03;;;;;;;15.29;100.00;101303.63;681346;28;1599;-83
2022/07/22 00:15:17;;;;;;;14.60;9.23;;;;;;;15.32;100.00;101300.94;682683;28;1470;-83
2022/07/22 00:15:38;;;;;;;14.23;8.87;;;;;;;15.39;100.00;101314.88;684501;28;1493;-84
2022/07/22 00:15:59;;;;;;;14.45;8.73;;;;;;;15.38;100.00;101301.75;684409;28;5266;-84
2022/07/22 00:16:19;;;;;;;13.80;8.68;;;;;;;15.36;100.00;101320.22;687033;28;1267;-83
2022/07/22 00:16:43;;;;;;;14.00;8.80;;;;;;;15.30;100.00;101300.09;685838;28;1620;-84
2022/07/22 00:17:03;;;;;;;13.98;8.93;;;;;;;15.29;100.00;101300.97;685898;28;1793;-84
2022/07/22 00:17:24;;;;;;;14.03;8.77;;;;;;;15.35;100.00;101309.69;682137;28;1502;-84
2022/07/22 00:17:44;;;;;;;12.82;8.70;;;;;;;15.33;100.00;101304.44;680724;28;1735;-84
2022/07/22 00:18:05;;;;;;;13.38;8.65;;;;;;;15.30;100.00;101310.63;685890;28;1904;-83
2022/07/22 00:18:25;;;;;;;12.60;8.50;;;;;;;15.27;100.00;101302.78;688772;28;1318;-84
2022/07/22 00:18:46;;;;;;;12.55;8.70;;;;;;;15.21;100.00;101304.63;687295;28;1513;-84
2022/07/22 00:19:07;;;;;;;15.85;9.10;;;;;;;15.18;100.00;101299.41;679071;28;4473;-84
2022/07/22 00:19:27;;;;;;;14.57;8.93;;;;;;;15.17;100.00;101293.25;686626;28;2004;-83
2022/07/22 00:19:50;;;;;;;16.02;8.77;;;;;;;15.17;100.00;101314.31;682552;28;1347;-84
2022/07/22 00:20:11;;;;;;;16.98;8.75;;;;;;;15.17;100.00;101314.31;686213;28;1246;-83
2022/07/22 00:20:35;;;;;;;15.93;8.48;;;;;;;15.13;100.00;101304.72;686390;28;1395;-84
2022/07/22 00:20:56;;;;;;;16.73;9.10;;;;;;;15.16;100.00;101317.88;690374;28;1674;-83
2022/07/22 00:21:16;;;;;;;14.93;9.02;;;;;;;15.18;100.00;101331.88;683406;28;1441;-83
2022/07/22 00:21:37;;;;;;;14.43;8.57;;;;;;;15.17;100.00;101303.78;684139;28;1295;-83
2022/07/22 00:21:58;;;;;;;13.32;8.32;;;;;;;15.17;100.00;101308.19;685739;28;4369;-84
2022/07/22 00:22:18;;;;;;;14.45;8.15;;;;;;;15.16;100.00;101309.97;686552;28;1244;-84
2022/07/22 00:22:39;;;;;;;13.20;8.30;;;;;;;15.14;100.00;101311.72;685753;28;1792;-84
2022/07/22 00:22:59;;;;;;;13.50;8.65;;;;;;;15.20;100.00;101302.88;689228;28;1307;-84
2022/07/22 00:23:20;;;;;;;14.55;8.45;;;;;;;15.30;100.00;101300.09;687889;28;1235;-84
2022/07/22 00:23:41;;;;;;;12.63;8.20;;;;;;;15.41;100.00;101313.13;687131;28;1644;-84
2022/07/22 00:24:12;;;;;;;13.13;8.30;;;;;;;15.39;100.00;101299.09;687542;28;1617;-84
2022/07/22 00:24:33;;;;;;;13.57;7.95;;;;;;;15.36;100.00;101314.09;685357;28;1006;-84
2022/07/22 00:24:54;;;;;;;13.68;8.20;;;;;;;15.38;100.00;101312.28;687656;28;1481;-84
2022/07/22 00:25:14;;;;;;;14.07;8.32;;;;;;;15.37;100.00;101321.06;686586;28;4413;-84
2022/07/22 00:25:37;;;;;;;13.73;8.10;;;;;;;15.35;100.00;101296.53;688755;28;1224;-83
2022/07/22 00:25:57;;;;;;;14.57;7.90;;;;;;;15.37;100.00;101310.53;682627;28;1634;-84
2022/07/22 00:26:18;;;;;;;12.80;7.87;;;;;;;15.34;100.00;101293.03;689281;28;1383;-84
2022/07/22 00:26:47;;;;;;;14.40;8.15;;;;;;;15.31;100.00;101301.84;685310;28;1691;-84
2022/07/22 00:27:08;;;;;;;14.65;8.07;;;;;;;15.23;100.00;101323.91;684856;28;1501;-84
2022/07/22 00:27:29;;;;;;;14.68;8.70;;;;;;;15.19;100.00;101306.38;682363;28;1467;-84
2022/07/22 00:27:49;;;;;;;13.50;8.87;;;;;;;15.24;100.00;101289.63;684736;28;1723;-84
2022/07/22 00:28:13;;;;;;;12.75;8.00;;;;;;;15.24;100.00;101301.94;672480;28;4307;-84
2022/07/22 00:28:33;;;;;;;13.55;8.38;;;;;;;15.23;100.00;101297.56;681660;28;1506;-83
2022/07/22 00:28:54;;;;;;;12.40;8.23;;;;;;;15.25;100.00;101312.44;681152;28;1767;-84
2022/07/22 00:29:22;;;;;;;14.65;8.48;;;;;;;15.26;100.00;101313.34;688552;28;1393;-84
2022/07/22 00:29:45;;;;;;;13.13;8.13;;;;;;;15.24;100.00;101292.25;689437;28;1148;-84
2022/07/22 00:30:09;;;;;;;12.93;8.07;;;;;;;15.28;100.00;101306.28;689619;28;1256;-85
2022/07/22 00:30:30;;;;;;;12.73;8.30;;;;;;;15.26;100.00;101334.41;684339;28;1805;-84
2022/07/22 00:30:51;;;;;;;13.95;8.05;;;;;;;15.27;100.00;101294.00;687031;28;1612;-83
2022/07/22 00:31:12;;;;;;;13.10;7.93;;;;;;;15.26;100.00;101303.66;685877;28;4348;-83
2022/07/22 00:31:32;;;;;;;12.77;7.73;;;;;;;15.21;100.00;101297.59;685640;28;1733;-84
2022/07/22 00:31:53;;;;;;;13.02;7.63;;;;;;;15.19;100.00;101307.28;684893;28;1787;-84
2022/07/22 00:32:13;;;;;;;11.77;7.45;;;;;;;15.21;100.00;101305.47;682692;28;1330;-84
2022/07/22 00:32:36;;;;;;;11.47;7.40;;;;;;;15.19;100.00;101317.81;682971;28;1237;-84
2022/07/22 00:33:02;;;;;;;12.63;7.80;;;;;;;15.12;100.00;101326.69;678646;29;1518;-84
2022/07/22 00:33:22;;;;;;;12.73;7.88;;;;;;;15.19;100.00;101316.94;682700;28;1413;-84
2022/07/22 00:33:44;;;;;;;12.65;7.88;;;;;;;15.23;100.00;101297.56;684086;28;1220;-84
2022/07/22 00:34:05;;;;;;;13.53;8.20;;;;;;;15.30;100.00;101300.09;686466;28;4308;-84
2022/07/22 00:34:25;;;;;;;14.73;7.78;;;;;;;15.26;100.00;101297.53;690157;28;1296;-84
2022/07/22 00:34:46;;;;;;;13.37;7.40;;;;;;;15.25;100.00;101306.31;688151;28;1828;-84
2022/07/22 00:35:07;;;;;;;11.00;7.32;;;;;;;15.23;100.00;101297.56;688087;28;1884;-84
2022/07/22 00:35:28;;;;;;;13.23;8.00;;;;;;;15.26;100.00;101302.81;687957;28;1543;-84
2022/07/22 00:35:49;;;;;;;12.75;7.70;;;;;;;15.24;100.00;101305.44;691130;28;1387;-84
2022/07/22 00:36:12;;;;;;;12.80;7.57;;;;;;;15.19;100.00;101296.75;682231;28;2082;-84
2022/07/22 00:36:33;;;;;;;13.27;7.53;;;;;;;15.24;100.00;101313.34;682553;28;1226;-83
2022/07/22 00:36:53;;;;;;;12.00;7.37;;;;;;;15.22;100.00;101307.22;686606;28;1452;-83
2022/07/22 00:37:14;;;;;;;12.52;7.65;;;;;;;15.24;100.00;101308.06;690790;28;4581;-84
2022/07/22 00:37:35;;;;;;;10.57;7.70;;;;;;;15.21;100.00;101310.75;689025;28;1662;-84
2022/07/22 00:37:55;;;;;;;10.93;7.80;;;;;;;15.25;100.00;101304.56;685704;28;1592;-83
2022/07/22 00:38:16;;;;;;;11.23;7.57;;;;;;;15.26;100.00;101302.81;683213;28;1451;-84
2022/07/22 00:38:36;;;;;;;12.97;7.20;;;;;;;15.23;100.00;101292.28;682062;28;1610;-84
2022/07/22 00:39:00;;;;;;;13.18;7.30;;;;;;;15.25;100.00;101319.50;683547;28;1310;-83
2022/07/22 00:39:26;;;;;;;12.90;7.68;;;;;;;15.19;100.00;101295.84;687215;28;1441;-84
2022/07/22 00:39:48;;;;;;;12.23;7.82;;;;;;;15.18;100.00;101316.06;684253;28;1301;-83
2022/07/22 00:40:34;;;;;;;12.45;7.57;;;;;;;15.20;100.00;101289.72;680506;28;5386;-84
2022/07/22 00:40:54;;;;;;;13.38;7.85;;;;;;;15.18;100.00;101310.81;684469;28;1325;-84
2022/07/22 00:41:25;;;;;;;12.45;8.00;;;;;;;15.19;100.00;101293.22;682638;28;1860;-84
2022/07/22 00:41:47;;;;;;;11.55;7.85;;;;;;;15.25;100.00;101322.13;685322;28;1811;-84
2022/07/22 00:42:12;;;;;;;11.93;7.57;;;;;;;15.29;100.00;101292.22;685810;28;1202;-84
2022/07/22 00:42:34;;;;;;;12.35;7.13;;;;;;;15.28;100.00;101314.19;685260;28;1783;-85
2022/07/22 00:42:55;;;;;;;13.15;7.18;;;;;;;15.24;100.00;101304.56;684655;28;4316;-84
2022/07/22 00:43:15;;;;;;;14.23;7.63;;;;;;;15.27;100.00;101289.59;686755;28;1320;-84
2022/07/22 00:44:07;;;;;;;16.00;7.57;;;;;;;15.26;100.00;101305.44;684785;28;1433;-84
2022/07/22 00:44:28;;;;;;;12.40;7.75;;;;;;;15.21;100.00;101331.81;688695;28;1404;-84
2022/07/22 00:44:51;;;;;;;12.52;7.45;;;;;;;15.21;100.00;101307.25;690103;28;1580;-84
2022/07/22 00:45:15;;;;;;;9.85;7.28;;;;;;;15.20;100.00;101313.41;687547;28;1498;-84
2022/07/22 00:45:36;;;;;;;13.68;7.97;;;;;;;15.15;100.00;101295.91;683051;28;1320;-84
2022/07/22 00:45:57;;;;;;;12.65;7.75;;;;;;;15.23;100.00;101287.91;668661;28;4416;-84
2022/07/22 00:46:18;;;;;;;14.20;7.53;;;;;;;15.21;100.00;101309.91;682066;28;1679;-83
2022/07/22 00:46:47;;;;;;;12.90;7.30;;;;;;;15.18;100.00;101295.00;683008;28;1355;-84
2022/07/22 00:47:08;;;;;;;14.15;7.43;;;;;;;15.24;100.00;101302.81;683095;28;1331;-84
2022/07/22 00:47:29;;;;;;;13.77;7.40;;;;;;;15.24;100.00;101288.78;682899;28;1456;-84
2022/07/22 00:47:54;;;;;;;12.23;7.57;;;;;;;15.18;100.00;101305.53;682459;28;1201;-84
2022/07/22 00:48:24;;;;;;;14.43;7.57;;;;;;;15.14;100.00;101311.72;685437;28;1313;-85
2022/07/22 00:48:45;;;;;;;14.23;7.45;;;;;;;15.08;100.00;101302.16;686097;28;1266;-84
2022/07/22 00:49:08;;;;;;;11.57;7.22;;;;;;;15.06;100.00;101305.69;679556;28;4332;-83
2022/07/22 00:49:28;;;;;;;12.88;7.65;;;;;;;15.04;100.00;101312.75;689294;28;1275;-84
2022/07/22 00:49:49;;;;;;;12.65;7.93;;;;;;;15.07;100.00;101304.81;684590;28;1451;-84
2022/07/22 00:50:14;;;;;;;13.00;7.80;;;;;;;15.02;100.00;101312.75;682458;28;3735;-84
2022/07/22 00:50:35;;;;;;;12.32;7.47;;;;;;;15.00;100.00;101324.22;682759;28;1677;-83
2022/07/22 00:50:58;;;;;;;13.70;7.40;;;;;;;15.00;100.00;101319.81;682935;28;1403;-84
2022/07/22 00:51:23;;;;;;;12.65;7.28;;;;;;;15.04;100.00;101297.81;682728;28;1915;-84
2022/07/22 00:51:46;;;;;;;13.57;7.40;;;;;;;15.06;100.00;101311.81;684933;28;1527;-84
2022/07/22 00:52:09;;;;;;;13.25;7.40;;;;;;;15.06;100.00;101290.75;686172;28;4414;-84
2022/07/22 00:52:37;;;;;;;11.60;7.47;;;;;;;15.07;100.00;101318.84;685303;28;1281;-84
2022/07/22 00:52:58;;;;;;;11.73;7.77;;;;;;;15.05;100.00;101296.03;684283;28;1202;-84
2022/07/22 00:53:21;;;;;;;13.38;7.63;;;;;;;15.04;100.00;101296.97;685021;28;1403;-84
2022/07/22 00:53:42;;;;;;;14.50;7.83;;;;;;;15.04;100.00;101310.13;686065;28;1787;-84
2022/07/22 00:54:03;;;;;;;12.07;7.63;;;;;;;15.09;100.00;101290.75;685560;28;1472;-84
2022/07/22 00:54:24;;;;;;;14.73;7.72;;;;;;;15.04;100.00;101302.22;684542;28;1931;-83
2022/07/22 00:54:50;;;;;;;12.82;7.70;;;;;;;15.02;100.00;101290.81;680095;29;1344;-84
2022/07/22 00:55:13;;;;;;;12.65;7.40;;;;;;;15.00;100.00;101305.78;684512;28;4275;-84
2022/07/22 00:55:34;;;;;;;13.23;7.88;;;;;;;15.01;100.00;101294.34;687748;28;1333;-84
2022/07/22 00:55:55;;;;;;;12.15;7.85;;;;;;;15.02;100.00;101288.19;688141;28;1921;-84
2022/07/22 00:56:21;;;;;;;11.48;7.30;;;;;;;15.03;100.00;101319.75;688431;28;1085;-84
2022/07/22 00:56:49;;;;;;;11.93;7.43;;;;;;;15.06;100.00;101305.69;692640;28;1825;-84
2022/07/22 00:57:10;;;;;;;12.90;7.47;;;;;;;15.12;100.00;101292.47;688256;28;2089;-84
2022/07/22 00:57:30;;;;;;;11.93;7.40;;;;;;;15.14;100.00;101288.03;690546;28;1263;-84
2022/07/22 00:57:51;;;;;;;11.90;7.57;;;;;;;15.11;100.00;101293.34;685382;28;1591;-84
2022/07/22 00:58:11;;;;;;;12.43;7.70;;;;;;;15.10;100.00;101300.34;684521;28;5166;-84
2022/07/22 00:58:32;;;;;;;12.88;7.65;;;;;;;15.10;100.00;101312.66;687135;28;1470;-84
2022/07/22 00:58:55;;;;;;;12.80;7.75;;;;;;;15.11;100.00;101293.34;689215;28;1430;-84
2022/07/22 00:59:16;;;;;;;10.68;7.53;;;;;;;15.22;100.00;101320.41;686057;28;1672;-85
2022/07/22 00:59:37;;;;;;;11.38;6.97;;;;;;;15.24;100.00;101294.91;685651;28;1633;-82
2022/07/22 01:00:00;;;;;;;12.80;7.30;;;;;;;15.21;100.00;101288.81;685706;28;1393;-83
2022/07/22 01:00:22;;;;;;;11.98;7.57;;;;;;;15.17;100.00;101280.06;686947;28;1674;-83
2022/07/22 01:00:45;;;;;;;13.45;7.30;;;;;;;15.13;100.00;101284.53;688504;28;1178;-83
2022/07/22 01:01:05;;;;;;;9.82;6.95;;;;;;;15.09;100.00;101305.66;684651;28;4320;-83
2022/07/22 01:01:36;;;;;;;10.43;7.17;;;;;;;15.12;100.00;101303.84;684177;28;1700;-83
2022/07/22 01:01:57;;;;;;;12.48;7.68;;;;;;;15.10;100.00;101300.34;682150;28;1556;-83
2022/07/22 01:02:23;;;;;;;12.18;7.20;;;;;;;15.07;100.00;101291.66;685748;28;2033;-83
2022/07/22 01:02:46;;;;;;;11.68;7.18;;;;;;;15.08;100.00;101317.09;688027;28;1764;-83
2022/07/22 01:03:12;;;;;;;12.23;7.32;;;;;;;15.06;100.00;101316.22;692649;28;1389;-83
2022/07/22 01:03:35;;;;;;;13.98;7.50;;;;;;;15.02;100.00;101294.31;685794;28;2135;-83
2022/07/22 01:03:56;;;;;;;14.10;7.45;;;;;;;15.06;100.00;101292.53;682492;28;4340;-82
2022/07/22 01:04:20;;;;;;;12.57;7.53;;;;;;;15.09;100.00;101288.09;687161;28;1133;-83
2022/07/22 01:04:41;;;;;;;12.02;7.20;;;;;;;15.07;100.00;101286.38;687022;28;2029;-83
2022/07/22 01:05:01;;;;;;;11.88;7.30;;;;;;;15.05;100.00;101296.03;683993;28;1395;-83
2022/07/22 01:05:22;;;;;;;13.18;7.68;;;;;;;15.04;100.00;101318.03;680731;28;1332;-83
2022/07/22 01:05:43;;;;;;;12.75;7.55;;;;;;;15.04;100.00;101302.22;683032;28;1939;-83
2022/07/22 01:06:04;;;;;;;13.63;7.30;;;;;;;15.04;100.00;101289.91;687566;28;1603;-83
2022/07/22 01:06:29;;;;;;;11.35;7.22;;;;;;;15.08;100.00;101288.13;683869;28;1391;-84
2022/07/22 01:06:51;;;;;;;13.20;7.60;;;;;;;15.19;100.00;101286.22;687789;28;1286;-83
2022/07/22 01:07:12;;;;;;;13.00;7.50;;;;;;;15.23;100.00;101294.91;689521;28;4273;-82
2022/07/22 01:07:32;;;;;;;12.52;7.32;;;;;;;15.21;100.00;101284.41;684773;28;1653;-83
2022/07/22 01:07:53;;;;;;;13.50;7.30;;;;;;;15.25;100.00;101291.38;682676;29;1587;-82
2022/07/22 01:08:13;;;;;;;12.37;7.40;;;;;;;15.26;100.00;101297.53;685949;28;1275;-82
2022/07/22 01:08:34;;;;;;;11.65;7.28;;;;;;;15.21;100.00;101287.03;688365;28;1835;-83
2022/07/22 01:08:56;;;;;;;12.25;7.60;;;;;;;15.20;100.00;101287.94;691277;28;1354;-83
2022/07/22 01:09:17;;;;;;;12.23;7.30;;;;;;;15.21;100.00;101286.19;687707;28;1801;-83
2022/07/22 01:09:43;;;;;;;12.38;7.50;;;;;;;15.28;100.00;101286.06;685669;28;1603;-83
2022/07/22 01:10:07;;;;;;;12.35;7.13;;;;;;;15.29;100.00;101290.44;685122;28;4352;-83
2022/07/22 01:10:28;;;;;;;13.25;7.43;;;;;;;15.27;100.00;101289.59;686068;28;1569;-83
2022/07/22 01:10:51;;;;;;;13.95;7.35;;;;;;;15.23;100.00;101297.56;686657;28;1828;-82
2022/07/22 01:11:16;;;;;;;14.02;7.45;;;;;;;15.17;100.00;101302.94;684419;28;1257;-82
2022/07/22 01:11:40;;;;;;;12.68;7.38;;;;;;;15.16;100.00;101302.06;683015;28;1678;-84
2022/07/22 01:12:03;;;;;;;13.07;7.22;;;;;;;15.25;100.00;101291.38;687287;28;1706;-83
2022/07/22 01:12:25;;;;;;;15.05;7.30;;;;;;;15.23;100.00;101285.28;687347;28;1013;-82
2022/07/22 01:12:46;;;;;;;13.73;7.28;;;;;;;15.21;100.00;101305.47;684393;28;1497;-82
2022/07/22 01:13:07;;;;;;;12.07;7.10;;;;;;;15.18;100.00;101284.47;686597;28;4303;-83
2022/07/22 01:13:27;;;;;;;11.38;7.53;;;;;;;15.16;100.00;101286.25;685409;28;1532;-83
2022/07/22 01:13:50;;;;;;;9.82;7.25;;;;;;;15.17;100.00;101281.84;682387;28;1436;-82
2022/07/22 01:14:11;;;;;;;10.55;7.43;;;;;;;15.10;100.00;101294.22;680761;29;1782;-83
2022/07/22 01:14:31;;;;;;;12.57;7.73;;;;;;;15.05;100.00;101282.88;682567;28;1402;-82
2022/07/22 01:14:52;;;;;;;12.43;8.00;;;;;;;15.02;100.00;101288.19;682757;28;1541;-82
2022/07/22 01:15:15;;;;;;;12.85;7.35;;;;;;;15.05;100.00;101309.22;689215;28;1219;-82
2022/07/22 01:15:36;;;;;;;11.55;7.20;;;;;;;15.07;100.00;101292.50;688621;28;1644;-82
2022/07/22 01:15:57;;;;;;;12.20;7.25;;;;;;;15.11;100.00;101288.09;689419;28;4360;-82
2022/07/22 01:16:18;;;;;;;11.37;7.33;;;;;;;15.18;100.00;101315.22;687957;28;1202;-83
2022/07/22 01:16:39;;;;;;;12.18;7.85;;;;;;;15.19;100.00;101290.59;685244;28;1959;-82
2022/07/22 01:16:59;;;;;;;13.10;8.07;;;;;;;15.20;100.00;101295.84;683984;28;1213;-83
2022/07/22 01:17:20;;;;;;;13.20;8.00;;;;;;;15.18;100.00;101284.47;684771;28;1582;-83
2022/07/22 01:17:41;;;;;;;13.48;8.15;;;;;;;15.15;100.00;101289.78;683303;28;1575;-82
2022/07/22 01:18:02;;;;;;;11.65;8.40;;;;;;;15.12;100.00;101298.59;682836;28;1538;-82
2022/07/22 01:18:22;;;;;;;11.25;8.07;;;;;;;15.16;100.00;101291.53;680568;29;1319;-83
2022/07/22 01:18:45;;;;;;;12.70;8.03;;;;;;;15.14;100.00;101293.31;682782;28;1663;-83
2022/07/22 01:19:05;;;;;;;12.65;8.25;;;;;;;15.14;100.00;101286.25;681520;28;4305;-82
2022/07/22 01:19:26;;;;;;;15.60;8.40;;;;;;;15.14;100.00;101293.31;682838;28;1560;-82
2022/07/22 01:19:46;;;;;;;15.35;8.65;;;;;;;15.13;100.00;101291.56;679722;29;1929;-83
2022/07/22 01:20:08;;;;;;;13.80;8.30;;;;;;;15.20;100.00;101287.94;683773;28;1657;-83
2022/07/22 01:20:29;;;;;;;12.90;8.48;;;;;;;15.18;100.00;101289.72;682684;29;1590;-82
2022/07/22 01:20:49;;;;;;;11.85;8.30;;;;;;;15.15;100.00;101289.78;681841;28;1365;-83
2022/07/22 01:21:10;;;;;;;13.77;8.75;;;;;;;15.16;100.00;101294.16;685270;28;1451;-82
2022/07/22 01:21:33;;;;;;;15.85;9.10;;;;;;;15.12;100.00;101292.47;686443;28;1492;-83
2022/07/22 01:21:54;;;;;;;14.48;9.05;;;;;;;15.11;100.00;101290.72;687159;28;1796;-82
2022/07/22 01:22:16;;;;;;;15.80;8.90;;;;;;;15.11;100.00;101293.34;687041;28;4911;-82
2022/07/22 01:22:36;;;;;;;14.53;8.70;;;;;;;15.13;100.00;101302.97;686355;28;1390;-82
2022/07/22 01:22:57;;;;;;;14.90;9.10;;;;;;;15.16;100.00;101307.34;683394;28;1516;-82
2022/07/22 01:23:18;;;;;;;15.13;9.20;;;;;;;15.10;100.00;101289.81;682743;28;1413;-82
2022/07/22 01:23:39;;;;;;;12.57;8.70;;;;;;;15.07;100.00;101294.28;683686;28;1785;-82
2022/07/22 01:24:00;;;;;;;13.75;8.38;;;;;;;15.09;100.00;101292.47;683783;28;1304;-82
2022/07/22 01:24:26;;;;;;;15.00;8.80;;;;;;;15.05;100.00;101323.28;685586;28;1544;-82
2022/07/22 01:24:50;;;;;;;15.07;9.02;;;;;;;15.05;100.00;101288.16;685621;28;1719;-83
2022/07/22 01:25:13;;;;;;;15.77;9.18;;;;;;;15.07;100.00;101304.81;685041;28;5355;-82
2022/07/22 01:25:34;;;;;;;15.13;9.15;;;;;;;15.03;100.00;101293.44;683896;28;1744;-83
2022/07/22 01:25:55;;;;;;;13.27;8.68;;;;;;;15.04;100.00;101287.28;681109;28;1533;-82
2022/07/22 01:26:17;;;;;;;12.75;8.57;;;;;;;15.04;100.00;101300.44;679411;29;1927;-83
2022/07/22 01:26:46;;;;;;;12.57;8.80;;;;;;;15.07;100.00;101289.00;679914;29;1450;-83
2022/07/22 01:27:12;;;;;;;14.68;9.23;;;;;;;15.12;100.00;101306.50;684423;28;1525;-82
2022/07/22 01:27:36;;;;;;;13.85;9.18;;;;;;;15.13;100.00;101296.81;685703;28;1856;-82
2022/07/22 01:27:57;;;;;;;12.70;8.77;;;;;;;15.13;100.00;101305.59;676091;28;4315;-82
2022/07/22 01:28:18;;;;;;;14.85;8.90;;;;;;;15.17;100.00;101302.94;682221;28;1395;-82
2022/07/22 01:28:41;;;;;;;16.38;8.60;;;;;;;15.15;100.00;101290.63;679561;29;1676;-84
2022/07/22 01:29:03;;;;;;;15.45;8.90;;;;;;;15.17;100.00;101287.97;682041;29;1703;-83
2022/07/22 01:29:23;;;;;;;16.50;9.02;;;;;;;15.12;100.00;101284.56;682671;28;1387;-83
2022/07/22 01:29:47;;;;;;;14.77;8.90;;;;;;;15.12;100.00;101289.84;687557;28;1384;-83
2022/07/22 01:30:12;;;;;;;15.98;8.88;;;;;;;15.05;100.00;101285.50;690748;28;1633;-83
2022/07/22 01:30:38;;;;;;;17.10;8.70;;;;;;;15.03;100.00;101308.38;690568;28;1341;-83
2022/07/22 01:30:59;;;;;;;13.68;9.00;;;;;;;15.07;100.00;101302.19;684628;28;4440;-83
2022/07/22 01:31:20;;;;;;;12.25;9.05;;;;;;;15.02;100.00;101304.00;687306;28;1469;-83
2022/07/22 01:31:40;;;;;;;12.85;9.02;;;;;;;15.06;100.00;101301.28;682771;28;1613;-83
2022/07/22 01:32:01;;;;;;;14.07;8.90;;;;;;;15.09;100.00;101306.53;685480;28;1692;-83
2022/07/22 01:32:31;;;;;;;12.63;8.55;;;;;;;15.02;100.00;101315.38;685362;28;1197;-83
2022/07/22 01:32:57;;;;;;;13.75;8.93;;;;;;;15.00;100.00;101295.25;685292;28;1890;-82
2022/07/22 01:33:19;;;;;;;14.55;8.60;;;;;;;14.95;100.00;101319.00;685107;28;1926;-83
2022/07/22 01:33:42;;;;;;;13.45;8.38;;;;;;;14.95;100.00;101288.28;682311;28;1564;-83
2022/07/22 01:34:06;;;;;;;13.60;8.52;;;;;;;14.93;100.00;101284.78;686302;28;4301;-83
2022/07/22 01:34:30;;;;;;;13.43;8.63;;;;;;;14.93;100.00;101290.06;687276;28;1825;-83
2022/07/22 01:34:53;;;;;;;12.87;9.20;;;;;;;14.91;100.00;101302.38;684802;28;1697;-83
2022/07/22 01:35:14;;;;;;;15.07;8.80;;;;;;;14.90;100.00;101284.84;685535;28;1429;-83
2022/07/22 01:35:35;;;;;;;16.70;9.23;;;;;;;14.95;100.00;101290.03;687324;28;1845;-83
2022/07/22 01:35:55;;;;;;;14.85;9.60;;;;;;;15.00;100.00;101282.09;687623;28;1738;-83
2022/07/22 01:36:16;;;;;;;13.80;9.17;;;;;;;14.99;100.00;101289.09;687610;28;1464;-83
2022/07/22 01:36:36;;;;;;;14.40;9.18;;;;;;;14.98;100.00;101300.50;687387;28;1398;-83
2022/07/22 01:36:57;;;;;;;12.47;8.83;;;;;;;14.95;100.00;101283.03;685645;28;4445;-83
2022/07/22 01:37:18;;;;;;;12.73;8.77;;;;;;;14.95;100.00;101285.66;686135;28;1283;-83
2022/07/22 01:37:45;;;;;;;14.02;8.82;;;;;;;14.92;100.00;101304.09;687341;28;1526;-83
2022/07/22 01:38:11;;;;;;;14.70;8.95;;;;;;;14.92;100.00;101303.25;683672;28;1497;-83
2022/07/22 01:38:32;;;;;;;13.40;8.60;;;;;;;14.92;100.00;101312.00;686421;28;1424;-83
2022/07/22 01:38:53;;;;;;;14.90;9.05;;;;;;;14.95;100.00;101298.81;686373;28;1387;-83
2022/07/22 01:39:15;;;;;;;13.50;8.77;;;;;;;15.01;100.00;101282.06;686193;28;1661;-83
2022/07/22 01:39:47;;;;;;;13.77;8.98;;;;;;;15.09;100.00;101297.75;686384;28;1466;-83
2022/07/22 01:40:19;;;;;;;14.13;8.88;;;;;;;15.07;100.00;101310.94;682540;28;4333;-83
2022/07/22 01:40:46;;;;;;;12.90;8.60;;;;;;;15.02;100.00;101298.72;684414;28;1291;-82
2022/07/22 01:41:13;;;;;;;12.80;8.40;;;;;;;15.02;100.00;101304.84;683881;28;1741;-83
2022/07/22 01:41:37;;;;;;;12.75;8.27;;;;;;;14.98;100.00;101282.97;685556;28;1842;-83
2022/07/22 01:42:12;;;;;;;12.20;8.50;;;;;;;14.97;100.00;101299.66;689372;28;1692;-83
2022/07/22 01:42:39;;;;;;;13.65;8.90;;;;;;;14.96;100.00;101305.81;687677;28;1828;-83
2022/07/22 01:43:11;;;;;;;13.82;8.75;;;;;;;14.94;100.00;101304.09;686661;28;4340;-83
2022/07/22 01:43:44;;;;;;;;;;;;;;;;;;;;;
2022/07/22 01:44:11;;;;;;;13.35;8.65;;;;;;;15.00;100.00;101293.47;689369;28;1732;-82
2022/07/22 01:44:32;;;;;;;13.15;8.38;;;;;;;15.02;100.00;101301.34;689906;28;1766;-83
2022/07/22 01:44:55;;;;;;;12.43;8.27;;;;;;;15.00;100.00;101287.34;692223;28;1580;-83